Time;durP1;ratioP1;P1;durP2;ratioP2;P2;SDS_P1;SDS_P2;PMS_P1;PMS_P2;Temp;Humidity;BMP_temperature;BMP_pressure;BME280_temperature;BME280_humidity;BME280_pressure;Samples;Min_cycle;Max_cycle;Signal;HPM_P1;HPM_P2
2022/05/24 00:01:24;;;;;;;17.38;12.45;;;14.40;99.90;;;;;;4887232;29;20127;-78
2022/05/24 00:03:50;;;;;;;17.77;11.95;;;14.40;99.90;;;;;;4895408;29;20441;-78
2022/05/24 00:06:16;;;;;;;15.82;11.73;;;14.40;99.90;;;;;;4879532;29;20586;-78
2022/05/24 00:08:42;;;;;;;18.30;10.65;;;13.60;99.90;;;;;;4878956;29;20100;-78
2022/05/24 00:11:08;;;;;;;16.23;10.27;;;14.40;99.90;;;;;;4880683;29;20429;-78
2022/05/24 00:13:34;;;;;;;13.23;9.13;;;14.30;99.90;;;;;;4896176;29;20040;-78
2022/05/24 00:16:00;;;;;;;12.98;10.38;;;14.30;99.90;;;;;;4880483;29;20040;-79
2022/05/24 00:18:28;;;;;;;13.48;8.80;;;14.30;99.90;;;;;;4878784;29;20091;-78
2022/05/24 00:21:00;;;;;;;10.68;8.77;;;14.30;99.90;;;;;;4895269;29;20070;-78
2022/05/24 00:23:27;;;;;;;12.00;9.00;;;14.30;99.90;;;;;;4893723;29;20082;-79
2022/05/24 00:25:57;;;;;;;10.68;8.60;;;14.20;99.90;;;;;;4893890;29;20036;-78
2022/05/24 00:28:26;;;;;;;11.88;8.68;;;14.20;99.90;;;;;;4895404;29;20038;-79
2022/05/24 00:30:53;;;;;;;10.52;7.60;;;14.10;99.90;;;;;;4878203;29;20044;-78
2022/05/24 00:33:21;;;;;;;9.88;7.78;;;14.10;99.90;;;;;;4895278;29;20040;-78
2022/05/24 00:35:47;;;;;;;11.60;8.57;;;14.10;99.90;;;;;;4895447;29;20551;-78
2022/05/24 00:38:23;;;;;;;10.75;7.75;;;14.10;99.90;;;;;;4909528;29;20042;-78
2022/05/24 00:41:14;;;;;;;10.88;7.80;;;14.20;99.90;;;;;;4885865;29;20123;-79
2022/05/24 00:43:54;;;;;;;14.88;8.18;;;14.10;99.90;;;;;;4890502;29;20067;-78
2022/05/24 00:46:28;;;;;;;10.93;8.18;;;14.10;99.90;;;;;;4856669;29;20046;-78
2022/05/24 00:49:01;;;;;;;11.40;7.63;;;14.10;99.90;;;;;;4873495;29;20072;-79
2022/05/24 00:51:33;;;;;;;13.77;8.70;;;14.10;99.90;;;;;;4874491;29;20076;-79
2022/05/24 00:53:59;;;;;;;14.13;9.02;;;14.00;99.90;;;;;;4874088;29;20052;-78
2022/05/24 00:56:46;;;;;;;13.07;8.32;;;14.00;99.90;;;;;;4858491;29;20044;-78
2022/05/24 00:59:23;;;;;;;11.80;9.10;;;14.00;99.90;;;;;;4857728;29;20348;-78
2022/05/24 01:01:49;;;;;;;12.00;9.77;;;14.00;99.90;;;;;;4872698;29;20858;-78
2022/05/24 01:04:22;;;;;;;13.00;9.43;;;14.00;99.90;;;;;;4859751;29;20188;-78
2022/05/24 01:06:49;;;;;;;13.23;9.65;;;14.00;99.90;;;;;;4870499;29;20037;-78
2022/05/24 01:09:20;;;;;;;12.30;9.82;;;14.00;99.90;;;;;;4841892;29;20422;-78
2022/05/24 01:11:51;;;;;;;12.40;9.45;;;14.00;99.90;;;;;;4872794;29;20086;-78
2022/05/24 01:14:19;;;;;;;11.63;9.18;;;13.90;99.90;;;;;;4857519;29;20140;-78
2022/05/24 01:16:45;;;;;;;14.60;10.65;;;13.90;99.90;;;;;;4873473;29;20037;-78
2022/05/24 01:19:23;;;;;;;13.30;9.52;;;13.90;99.90;;;;;;4857885;29;20041;-78
2022/05/24 01:21:50;;;;;;;13.10;10.40;;;13.90;99.90;;;;;;4867517;29;20726;-78
2022/05/24 01:24:26;;;;;;;14.10;10.15;;;13.90;99.90;;;;;;4844054;29;20049;-78
2022/05/24 01:26:57;;;;;;;13.73;10.15;;;13.90;99.90;;;;;;4872387;29;20071;-78
2022/05/24 01:29:25;;;;;;;12.75;10.13;;;13.90;99.90;;;;;;4872855;29;20072;-78
2022/05/24 01:37:22;;;;;;;11.82;10.50;;;14.00;99.90;;;;;;4863219;29;20584;-78
2022/05/24 01:39:52;;;;;;;13.82;10.60;;;13.90;99.90;;;;;;4848063;29;20049;-78
2022/05/24 01:42:19;;;;;;;14.35;10.95;;;13.90;99.90;;;;;;4877763;29;20043;-78
2022/05/24 01:44:54;;;;;;;17.15;12.50;;;13.90;99.90;;;;;;4871396;29;20064;-78
2022/05/24 01:47:22;;;;;;;17.90;12.98;;;13.90;99.90;;;;;;4879032;29;20485;-78
2022/05/24 01:49:56;;;;;;;21.75;17.02;;;13.90;99.90;;;;;;4879460;29;20075;-78
2022/05/24 01:52:26;;;;;;;24.55;16.85;;;14.00;99.90;;;;;;4893906;29;20058;-78
2022/05/24 01:54:57;;;;;;;25.45;18.88;;;14.00;99.90;;;;;;4879229;29;20050;-78
2022/05/24 01:57:38;;;;;;;24.13;18.48;;;14.00;99.90;;;;;;4878330;29;20047;-79
2022/05/24 02:00:07;;;;;;;25.83;19.20;;;14.00;99.90;;;;;;4879350;29;20588;-78
2022/05/24 02:02:33;;;;;;;28.52;21.50;;;14.00;99.90;;;;;;4879440;29;20096;-78
2022/05/24 02:04:59;;;;;;;25.83;20.42;;;14.00;99.90;;;;;;4877780;29;20040;-78
2022/05/24 02:07:26;;;;;;;29.77;22.80;;;14.10;99.90;;;;;;4864815;29;20071;-78
2022/05/24 02:09:54;;;;;;;28.50;21.80;;;14.00;99.90;;;;;;4879747;29;20079;-78
2022/05/24 02:12:30;;;;;;;29.88;22.27;;;14.00;99.90;;;;;;4879420;29;20052;-78
2022/05/24 02:15:06;;;;;;;31.25;22.23;;;14.00;99.90;;;;;;4878939;29;20044;-78
2022/05/24 02:18:04;;;;;;;32.10;22.92;;;14.00;99.90;;;;;;4879983;29;20068;-78
2022/05/24 02:20:33;;;;;;;27.35;22.23;;;14.10;99.90;;;;;;4893979;29;20421;-78
2022/05/24 02:22:59;;;;;;;27.58;21.50;;;14.00;99.90;;;;;;4879560;29;20040;-78
2022/05/24 02:25:31;;;;;;;30.23;22.42;;;14.10;99.90;;;;;;4880878;29;20040;-78
2022/05/24 02:27:56;;;;;;;30.45;21.92;;;14.10;99.90;;;;;;4882780;29;20048;-77
2022/05/24 02:30:25;;;;;;;29.05;21.38;;;14.10;99.90;;;;;;4896000;29;20036;-78
2022/05/24 02:32:51;;;;;;;26.58;21.10;;;14.10;99.90;;;;;;4895256;29;20054;-78
2022/05/24 02:35:18;;;;;;;31.38;21.20;;;14.10;99.90;;;;;;4892225;29;20130;-78
2022/05/24 02:37:44;;;;;;;28.42;21.95;;;14.10;99.90;;;;;;4895124;29;20071;-78
2022/05/24 02:42:55;;;;;;;32.00;21.77;;;14.10;99.90;;;;;;4895752;29;20123;-78
2022/05/24 02:45:21;;;;;;;28.13;21.02;;;14.10;99.90;;;;;;4880419;29;20380;-78
2022/05/24 02:47:48;;;;;;;24.50;20.13;;;14.10;99.90;;;;;;4867123;29;20055;-79
2022/05/24 02:50:14;;;;;;;26.13;20.58;;;14.10;99.90;;;;;;4867465;29;20048;-78
2022/05/24 02:52:40;;;;;;;25.58;20.42;;;14.10;99.90;;;;;;4881021;29;20203;-77
2022/05/24 02:55:11;;;;;;;28.88;20.75;;;14.10;99.90;;;;;;4894346;29;20059;-78
2022/05/24 02:57:38;;;;;;;24.80;20.10;;;14.10;99.90;;;;;;4880563;29;20051;-78
2022/05/24 03:00:08;;;;;;;22.70;19.25;;;14.10;99.90;;;;;;4881434;29;20044;-78
2022/05/24 03:02:34;;;;;;;25.70;20.08;;;14.10;99.90;;;;;;4880365;29;20036;-78
2022/05/24 03:05:01;;;;;;;25.83;19.88;;;14.10;99.90;;;;;;4881132;29;20083;-77
2022/05/24 03:10:11;;;;;;;23.60;18.70;;;14.10;99.90;;;;;;4897055;29;20507;-78
2022/05/24 03:15:21;;;;;;;23.20;18.08;;;14.10;99.90;;;;;;4891236;29;21344;-78
2022/05/24 03:17:46;;;;;;;22.52;17.08;;;14.10;99.90;;;;;;4878503;29;20052;-78
2022/05/24 03:20:12;;;;;;;20.00;17.83;;;14.10;99.90;;;;;;4879627;29;20080;-78
2022/05/24 03:22:38;;;;;;;23.55;17.10;;;14.10;99.90;;;;;;4880457;29;20111;-78
2022/05/24 03:25:04;;;;;;;22.00;17.02;;;14.10;99.90;;;;;;4894466;29;20071;-78
2022/05/24 03:27:30;;;;;;;21.83;18.08;;;14.10;99.90;;;;;;4878804;29;20475;-78
2022/05/24 03:29:56;;;;;;;22.33;17.65;;;14.10;99.90;;;;;;4894659;29;20099;-77
2022/05/24 03:32:22;;;;;;;23.30;17.60;;;14.10;99.90;;;;;;4878089;29;20107;-78
2022/05/24 03:34:47;;;;;;;26.85;17.67;;;14.10;99.90;;;;;;4897918;29;20095;-78
2022/05/24 03:37:13;;;;;;;22.23;16.40;;;14.10;99.90;;;;;;4863053;29;20045;-78
2022/05/24 03:39:39;;;;;;;23.13;17.70;;;14.10;99.90;;;;;;4861220;29;20075;-78
2022/05/24 03:42:06;;;;;;;23.88;18.42;;;14.10;99.90;;;;;;4887726;29;20039;-78
2022/05/24 03:44:32;;;;;;;27.02;19.42;;;14.20;99.90;;;;;;4900194;29;20056;-78
2022/05/24 03:46:58;;;;;;;27.60;21.00;;;14.10;99.90;;;;;;4889643;29;20040;-78
2022/05/24 03:49:24;;;;;;;31.38;20.92;;;14.10;99.90;;;;;;4868344;29;20047;-78
2022/05/24 03:51:50;;;;;;;27.67;20.50;;;14.10;99.90;;;;;;4888385;29;20088;-77
2022/05/24 03:54:16;;;;;;;30.15;21.05;;;14.00;99.90;;;;;;4898812;29;20071;-77
2022/05/24 03:59:27;;;;;;;30.45;21.23;;;14.00;99.90;;;;;;4909268;29;21010;-77
2022/05/24 04:01:53;;;;;;;33.38;20.40;;;14.00;99.90;;;;;;4880077;29;20421;-78
2022/05/24 04:04:19;;;;;;;35.03;21.50;;;14.00;99.90;;;;;;4896152;29;20064;-78
2022/05/24 04:06:45;;;;;;;29.85;20.42;;;14.00;99.90;;;;;;4865061;29;20059;-78
2022/05/24 04:09:12;;;;;;;31.05;21.95;;;14.00;99.90;;;;;;4880266;29;20053;-78
2022/05/24 04:11:37;;;;;;;28.48;20.52;;;13.90;99.90;;;;;;4864183;29;20052;-78
2022/05/24 04:14:03;;;;;;;31.60;21.27;;;13.90;99.90;;;;;;4895359;29;20043;-78
2022/05/24 04:16:29;;;;;;;31.42;22.35;;;13.90;99.90;;;;;;4880339;29;20055;-78
2022/05/24 04:18:55;;;;;;;31.90;21.55;;;13.90;99.90;;;;;;4880823;29;20501;-78
2022/05/24 04:21:23;;;;;;;28.98;20.85;;;13.90;99.90;;;;;;4878176;29;20052;-78
2022/05/24 04:23:48;;;;;;;27.42;19.95;;;13.90;99.90;;;;;;4880127;29;20036;-78
2022/05/24 04:26:15;;;;;;;30.58;20.02;;;13.90;99.90;;;;;;4878345;29;20034;-78
2022/05/24 04:28:40;;;;;;;26.63;18.75;;;13.90;99.90;;;;;;4879807;29;20043;-78
2022/05/24 04:31:06;;;;;;;30.38;19.15;;;13.90;99.90;;;;;;4877629;29;20048;-77
2022/05/24 04:33:32;;;;;;;33.05;19.05;;;13.90;99.90;;;;;;4894013;29;20058;-78
2022/05/24 04:35:57;;;;;;;32.97;19.85;;;13.90;99.90;;;;;;4910630;29;20097;-78
2022/05/24 04:38:24;;;;;;;27.27;18.33;;;13.80;99.90;;;;;;4892977;29;20069;-78
2022/05/24 04:43:33;;;;;;;23.88;17.30;;;13.80;99.90;;;;;;4896248;29;20103;-78
2022/05/24 04:45:59;;;;;;;25.58;16.38;;;13.80;99.90;;;;;;4895362;29;20080;-77
2022/05/24 04:48:25;;;;;;;23.75;15.63;;;13.80;99.90;;;;;;4879688;29;20121;-77
2022/05/24 04:50:56;;;;;;;24.83;16.05;;;13.70;99.90;;;;;;4894486;29;20458;-78
2022/05/24 04:53:23;;;;;;;23.33;15.32;;;13.70;99.90;;;;;;4879851;29;20067;-78
2022/05/24 04:55:49;;;;;;;22.17;15.32;;;13.70;99.90;;;;;;4879510;29;20498;-77
2022/05/24 04:58:18;;;;;;;25.70;14.73;;;13.70;99.90;;;;;;4878462;29;20046;-77
2022/05/24 05:00:45;;;;;;;24.30;14.77;;;13.70;99.90;;;;;;4882227;29;20044;-78
2022/05/24 05:03:13;;;;;;;21.08;14.15;;;13.70;99.90;;;;;;4889705;29;20036;-78
2022/05/24 05:05:39;;;;;;;22.73;14.35;;;13.70;99.90;;;;;;4879306;29;20132;-78
2022/05/24 05:08:06;;;;;;;24.23;14.50;;;13.70;99.90;;;;;;4879629;29;20044;-78
2022/05/24 05:10:36;;;;;;;21.70;14.13;;;13.70;99.90;;;;;;4879953;29;20460;-78
2022/05/24 05:13:04;;;;;;;24.88;14.65;;;13.70;99.90;;;;;;4877671;29;20040;-78
2022/05/24 05:15:31;;;;;;;21.25;13.75;;;13.70;99.90;;;;;;4877744;29;20469;-78
2022/05/24 05:18:09;;;;;;;21.55;13.93;;;13.60;99.90;;;;;;4883384;29;20067;-78
2022/05/24 05:20:39;;;;;;;22.88;14.52;;;13.70;99.90;;;;;;4908923;29;20381;-78
2022/05/24 05:23:11;;;;;;;20.70;13.05;;;13.60;99.90;;;;;;4895429;29;20044;-78
2022/05/24 05:25:38;;;;;;;19.02;13.40;;;13.60;99.90;;;;;;4880653;29;20108;-78
2022/05/24 05:28:04;;;;;;;22.75;13.52;;;13.80;99.90;;;;;;4879168;29;20028;-78
2022/05/24 05:33:15;;;;;;;23.73;14.20;;;13.70;99.90;;;;;;4890953;29;20048;-78
2022/05/24 05:35:44;;;;;;;18.30;11.98;;;13.70;99.90;;;;;;4894232;29;20318;-78
2022/05/24 05:38:10;;;;;;;20.10;13.15;;;13.70;99.90;;;;;;4878084;29;21283;-78
2022/05/24 05:40:36;;;;;;;19.30;12.60;;;13.80;99.90;;;;;;4891798;29;20048;-78
2022/05/24 05:43:01;;;;;;;23.48;12.95;;;13.70;99.90;;;;;;4880121;29;20082;-78
2022/05/24 05:45:27;;;;;;;17.90;12.00;;;13.70;99.90;;;;;;4895738;29;20371;-78
2022/05/24 05:47:53;;;;;;;17.98;12.30;;;13.80;99.90;;;;;;4875945;29;20048;-78
2022/05/24 05:50:20;;;;;;;19.52;13.63;;;13.80;99.90;;;;;;4893999;29;20544;-78
2022/05/24 05:52:46;;;;;;;18.40;12.68;;;13.80;99.90;;;;;;4863524;29;20040;-79
2022/05/24 05:55:12;;;;;;;19.20;12.55;;;13.90;99.90;;;;;;4868711;29;20123;-78
2022/05/24 05:57:39;;;;;;;23.02;13.15;;;13.90;99.90;;;;;;4892751;29;20119;-78
2022/05/24 06:00:06;;;;;;;19.25;13.25;;;13.90;99.90;;;;;;4894725;29;20445;-78
2022/05/24 06:02:32;;;;;;;22.40;14.10;;;13.80;99.90;;;;;;4893541;29;20036;-79
2022/05/24 06:04:58;;;;;;;19.63;13.05;;;13.90;99.90;;;;;;4880703;29;20047;-79
2022/05/24 06:07:23;;;;;;;19.77;12.52;;;13.90;99.90;;;;;;4879284;29;20047;-79
2022/05/24 06:09:50;;;;;;;19.45;12.68;;;13.90;99.90;;;;;;4879242;29;20056;-79
2022/05/24 06:12:16;;;;;;;18.38;12.70;;;13.90;99.90;;;;;;4892683;29;21651;-79
2022/05/24 06:14:42;;;;;;;22.92;13.48;;;13.90;99.90;;;;;;4878770;29;20041;-78
2022/05/24 06:17:08;;;;;;;21.70;12.48;;;13.90;99.90;;;;;;4892626;29;20519;-79
2022/05/24 06:19:34;;;;;;;22.98;12.48;;;13.90;99.90;;;;;;4868467;29;20056;-79
2022/05/24 06:21:59;;;;;;;19.98;13.05;;;13.90;99.90;;;;;;4885355;29;20074;-79
2022/05/24 06:24:25;;;;;;;23.65;13.70;;;13.90;99.90;;;;;;4883948;29;20044;-79
2022/05/24 06:26:51;;;;;;;23.67;12.38;;;13.90;99.90;;;;;;4895967;29;20488;-79
2022/05/24 06:29:19;;;;;;;22.30;12.13;;;13.90;99.90;;;;;;4884469;29;20044;-79
2022/05/24 06:31:46;;;;;;;19.17;12.00;;;13.90;99.90;;;;;;4893278;29;20048;-78
2022/05/24 06:34:12;;;;;;;20.77;13.25;;;13.90;99.90;;;;;;4897935;29;20098;-78
2022/05/24 06:36:38;;;;;;;20.15;12.55;;;13.90;99.90;;;;;;4883612;29;20143;-79
2022/05/24 06:39:03;;;;;;;20.65;12.68;;;13.90;99.90;;;;;;4882622;29;20138;-79
2022/05/24 06:41:29;;;;;;;20.85;12.52;;;13.90;99.90;;;;;;4882315;29;20134;-78
2022/05/24 06:43:55;;;;;;;17.00;11.90;;;14.00;99.90;;;;;;4864843;29;20139;-79
2022/05/24 06:46:21;;;;;;;21.70;12.00;;;14.00;99.90;;;;;;4898430;29;20127;-77
2022/05/24 06:48:47;;;;;;;22.05;12.23;;;14.00;99.90;;;;;;4896589;29;20048;-77
2022/05/24 06:51:18;;;;;;;23.13;12.55;;;14.00;99.90;;;;;;4893353;29;20374;-80
2022/05/24 06:53:46;;;;;;;20.10;13.05;;;14.00;99.90;;;;;;4882921;29;20036;-78
2022/05/24 06:56:12;;;;;;;24.42;12.43;;;14.00;99.90;;;;;;4877509;29;20134;-77
2022/05/24 06:58:39;;;;;;;21.00;12.60;;;14.00;99.90;;;;;;4895778;29;20044;-79
2022/05/24 07:03:52;;;;;;;19.88;11.95;;;14.00;99.90;;;;;;4894684;29;20055;-77
2022/05/24 07:06:17;;;;;;;21.55;12.63;;;14.10;99.90;;;;;;4878133;29;20048;-77
2022/05/24 07:08:45;;;;;;;18.83;12.55;;;14.10;99.90;;;;;;4894618;29;20047;-78
2022/05/24 07:11:12;;;;;;;25.25;13.15;;;14.10;99.90;;;;;;4881075;29;20048;-78
2022/05/24 07:13:39;;;;;;;20.02;12.02;;;14.10;99.90;;;;;;4896057;29;20429;-78
2022/05/24 07:16:07;;;;;;;21.38;12.30;;;14.20;99.90;;;;;;4894826;29;20711;-78
2022/05/24 07:18:34;;;;;;;22.13;12.73;;;14.20;99.90;;;;;;4891699;29;20040;-78
2022/05/24 07:21:00;;;;;;;19.73;12.40;;;14.10;99.90;;;;;;4893945;29;20044;-79
2022/05/24 07:23:25;;;;;;;18.23;12.13;;;14.20;99.90;;;;;;4879450;29;20092;-78
2022/05/24 07:25:52;;;;;;;19.90;13.05;;;14.20;99.90;;;;;;4864596;29;20068;-77
2022/05/24 07:28:19;;;;;;;17.88;12.80;;;14.10;99.90;;;;;;4879336;29;20036;-78
2022/05/24 07:30:47;;;;;;;18.55;11.95;;;14.20;99.90;;;;;;4879238;29;20185;-77
2022/05/24 07:33:13;;;;;;;15.90;11.77;;;14.10;99.90;;;;;;4878240;29;20047;-78
2022/05/24 07:35:43;;;;;;;16.23;11.32;;;14.20;99.90;;;;;;4880826;29;20040;-77
2022/05/24 07:38:10;;;;;;;14.35;11.65;;;14.30;99.90;;;;;;4894413;29;20075;-77
2022/05/24 07:46:11;;;;;;;18.33;11.57;;;14.40;99.90;;;;;;4894523;29;20108;-78
2022/05/24 07:48:37;;;;;;;14.95;11.00;;;14.50;99.90;;;;;;4878007;29;20048;-78
2022/05/24 07:51:04;;;;;;;15.13;9.70;;;14.70;99.90;;;;;;4891519;29;20048;-79
2022/05/24 07:53:31;;;;;;;17.20;9.80;;;14.90;99.90;;;;;;4875942;29;20202;-78
2022/05/24 07:55:58;;;;;;;14.65;8.70;;;15.10;99.90;;;;;;4873546;29;20107;-79
2022/05/24 07:58:24;;;;;;;13.77;7.70;;;15.20;99.90;;;;;;4876426;29;20034;-78
2022/05/24 08:00:50;;;;;;;13.48;7.72;;;15.20;99.90;;;;;;4879834;29;20146;-79
2022/05/24 08:03:16;;;;;;;10.73;6.03;;;15.10;99.90;;;;;;4864253;29;20497;-80
2022/05/24 08:05:42;;;;;;;12.13;6.20;;;15.20;99.90;;;;;;4878708;29;20039;-79
2022/05/24 08:08:09;;;;;;;9.27;4.97;;;15.50;99.90;;;;;;4876435;29;20444;-79
2022/05/24 08:10:37;;;;;;;6.45;4.85;;;15.80;99.90;;;;;;4878106;29;20059;-79
2022/05/24 08:13:08;;;;;;;11.52;4.72;;;16.10;99.90;;;;;;4862818;29;20104;-80
2022/05/24 08:15:34;;;;;;;9.73;3.92;;;16.40;99.90;;;;;;4894424;29;20040;-80
2022/05/24 08:18:00;;;;;;;8.40;4.28;;;16.50;99.90;;;;;;4880091;29;20056;-79
2022/05/24 08:20:27;;;;;;;9.88;4.03;;;16.50;99.90;;;;;;4862750;29;20052;-79
2022/05/24 08:22:53;;;;;;;8.32;4.00;;;16.60;99.90;;;;;;4850190;29;20071;-78
2022/05/24 08:25:19;;;;;;;6.10;3.85;;;16.60;99.90;;;;;;4861793;29;20409;-79
2022/05/24 08:27:45;;;;;;;7.53;3.38;;;16.60;99.90;;;;;;4892773;29;20044;-77
2022/05/24 08:30:14;;;;;;;5.95;3.55;;;16.90;99.90;;;;;;4877714;29;20067;-78
2022/05/24 08:32:40;;;;;;;7.90;3.70;;;16.90;99.90;;;;;;4876873;29;20793;-79
2022/05/24 08:35:08;;;;;;;10.32;5.00;;;17.00;99.90;;;;;;4877734;29;20052;-80
2022/05/24 08:37:33;;;;;;;9.35;4.57;;;17.00;99.90;;;;;;4880055;29;20056;-79
2022/05/24 08:39:59;;;;;;;5.75;4.10;;;17.00;99.90;;;;;;4861408;29;20047;-79
2022/05/24 08:42:56;;;;;;;8.68;4.20;;;17.00;99.90;;;;;;4862620;29;20047;-79
2022/05/24 08:48:23;;;;;;;7.05;4.63;;;17.10;99.90;;;;;;4880301;29;20037;-81
2022/05/24 08:50:58;;;;;;;8.02;4.28;;;17.00;99.90;;;;;;4870093;29;20096;-81
2022/05/24 08:53:34;;;;;;;9.25;4.65;;;16.90;99.90;;;;;;4875495;29;20063;-80
2022/05/24 08:56:04;;;;;;;7.50;4.68;;;16.70;99.90;;;;;;4876038;29;20527;-80
2022/05/24 08:58:39;;;;;;;8.50;4.40;;;16.40;99.90;;;;;;4863258;29;20052;-80
2022/05/24 09:01:24;;;;;;;12.32;5.05;;;16.30;99.90;;;;;;4878820;29;20501;-80
2022/05/24 09:03:51;;;;;;;8.70;5.03;;;16.10;99.90;;;;;;4876092;29;20048;-81
2022/05/24 09:06:47;;;;;;;8.35;5.00;;;16.00;99.90;;;;;;4855109;29;20288;-81
2022/05/24 09:09:40;;;;;;;10.05;5.22;;;16.00;99.90;;;;;;4869087;29;20192;-80
2022/05/24 09:12:24;;;;;;;8.82;4.85;;;16.00;99.90;;;;;;4905312;29;20040;-79
2022/05/24 09:15:24;;;;;;;6.80;4.38;;;16.00;99.90;;;;;;4907142;29;20060;-80
2022/05/24 09:18:05;;;;;;;8.27;4.50;;;16.00;99.90;;;;;;4876133;29;20075;-80
2022/05/24 09:20:36;;;;;;;9.80;5.28;;;15.90;99.90;;;;;;4869546;29;21448;-81
2022/05/24 09:23:20;;;;;;;8.43;4.65;;;15.90;99.90;;;;;;4900818;29;20047;-81
2022/05/24 09:26:10;;;;;;;6.88;4.90;;;16.00;99.90;;;;;;4872622;29;20648;-80
2022/05/24 09:28:55;;;;;;;7.30;5.05;;;16.00;99.90;;;;;;4880961;29;20048;-80
2022/05/24 09:31:32;;;;;;;5.47;3.70;;;16.00;99.90;;;;;;4878872;29;20123;-81
2022/05/24 09:34:03;;;;;;;6.63;2.53;;;16.00;99.90;;;;;;4871486;29;20409;-80
2022/05/24 09:36:34;;;;;;;6.30;1.98;;;16.10;99.90;;;;;;4883910;29;20045;-81
2022/05/24 09:39:02;;;;;;;4.40;2.55;;;16.00;99.90;;;;;;4868958;29;20076;-81
2022/05/24 09:41:29;;;;;;;4.15;1.70;;;16.00;99.90;;;;;;4870380;29;20084;-81
2022/05/24 09:44:12;;;;;;;3.30;1.58;;;16.00;99.90;;;;;;4871882;29;20044;-81
2022/05/24 09:46:41;;;;;;;2.92;1.50;;;15.90;99.90;;;;;;4893661;29;20057;-80
2022/05/24 09:49:18;;;;;;;3.22;1.65;;;15.80;99.90;;;;;;4863684;29;20052;-80
2022/05/24 09:51:45;;;;;;;3.67;1.90;;;15.80;99.90;;;;;;4878321;29;20048;-80
2022/05/24 09:54:22;;;;;;;4.75;1.90;;;15.80;99.90;;;;;;4881187;29;20068;-81
2022/05/24 09:57:05;;;;;;;5.03;1.70;;;15.80;99.90;;;;;;4897752;29;20040;-79
2022/05/24 09:59:32;;;;;;;3.78;1.83;;;15.90;99.90;;;;;;4880547;29;20385;-80
2022/05/24 10:01:57;;;;;;;7.65;2.13;;;16.10;99.90;;;;;;4865335;29;20040;-79
2022/05/24 10:04:33;;;;;;;3.08;2.05;;;16.20;99.90;;;;;;4850796;29;20393;-82
2022/05/24 10:07:21;;;;;;;3.05;2.08;;;16.30;99.90;;;;;;4895768;29;20401;-80
2022/05/24 10:10:12;;;;;;;4.50;2.28;;;16.30;99.90;;;;;;4881128;29;20047;-80
2022/05/24 10:12:59;;;;;;;2.95;1.05;;;16.10;99.90;;;;;;4898348;29;20032;-78
2022/05/24 10:15:59;;;;;;;2.35;0.75;;;15.90;99.90;;;;;;4896135;29;20401;-81
2022/05/24 10:18:50;;;;;;;4.30;1.00;;;15.60;99.90;;;;;;4895333;29;20036;-80
2022/05/24 10:21:30;;;;;;;0.63;0.55;;;15.30;99.90;;;;;;4841495;29;20048;-78
2022/05/24 10:24:10;;;;;;;2.42;0.80;;;15.10;99.90;;;;;;4896249;29;20043;-78
2022/05/24 10:26:41;;;;;;;5.13;0.80;;;14.90;99.90;;;;;;4881711;29;20044;-78
2022/05/24 10:29:32;;;;;;;5.20;1.00;;;14.70;99.90;;;;;;4897072;29;20056;-78
2022/05/24 10:32:05;;;;;;;6.28;0.90;;;14.40;99.90;;;;;;4882296;29;20051;-78
2022/05/24 10:38:20;;;;;;;3.67;1.10;;;14.10;99.90;;;;;;4868817;29;20478;-79
2022/05/24 10:41:07;;;;;;;1.98;1.30;;;13.80;99.90;;;;;;4895320;29;20048;-79
2022/05/24 10:43:54;;;;;;;4.25;1.70;;;13.70;99.90;;;;;;4914728;29;20484;-79
2022/05/24 10:46:30;;;;;;;3.92;2.20;;;13.60;99.90;;;;;;4880045;29;20481;-79
2022/05/24 10:49:21;;;;;;;4.60;2.30;;;13.60;99.90;;;;;;4893496;29;20032;-79
2022/05/24 10:51:55;;;;;;;2.70;1.95;;;13.50;99.90;;;;;;4887166;29;20055;-79
2022/05/24 10:54:27;;;;;;;4.72;1.90;;;13.50;99.90;;;;;;4896697;29;20040;-79
2022/05/24 10:56:58;;;;;;;6.00;2.58;;;13.60;99.90;;;;;;4882410;29;20059;-79
2022/05/24 10:59:42;;;;;;;3.85;2.70;;;13.70;99.90;;;;;;4897161;29;20036;-78
2022/05/24 11:02:42;;;;;;;5.95;3.03;;;13.80;99.90;;;;;;4881316;29;20046;-79
2022/05/24 11:05:31;;;;;;;5.63;2.95;;;14.00;99.90;;;;;;4882328;29;20055;-79
2022/05/24 11:08:05;;;;;;;3.88;2.83;;;14.00;99.90;;;;;;4887357;29;20469;-79
2022/05/24 11:10:36;;;;;;;7.05;3.10;;;13.90;99.90;;;;;;4870443;29;20049;-79
2022/05/24 11:13:12;;;;;;;5.65;3.20;;;14.00;99.90;;;;;;4888498;29;20040;-79
2022/05/24 11:15:43;;;;;;;4.95;2.63;;;13.90;99.90;;;;;;4896504;29;20481;-80
2022/05/24 11:18:19;;;;;;;4.90;2.60;;;13.90;99.90;;;;;;4896453;29;20409;-80
2022/05/24 11:20:56;;;;;;;;;;;13.90;99.90;;;;;;4894934;29;20047;-79
2022/05/24 11:23:27;;;;;;;5.28;1.50;;;13.90;99.90;;;;;;4889935;29;19920;-80
2022/05/24 11:26:24;;;;;;;2.10;1.42;;;13.80;99.90;;;;;;4882980;29;20393;-80
2022/05/24 11:29:13;;;;;;;3.15;1.13;;;13.80;99.90;;;;;;4862684;29;20059;-79
2022/05/24 11:31:44;;;;;;;2.90;1.00;;;13.80;99.90;;;;;;4893459;29;20485;-79
2022/05/24 11:34:25;;;;;;;2.17;1.10;;;13.80;99.90;;;;;;4873241;29;20043;-79
2022/05/24 11:37:23;;;;;;;2.95;1.02;;;13.80;99.90;;;;;;4894494;29;20095;-79
2022/05/24 11:39:49;;;;;;;2.47;1.00;;;13.80;99.90;;;;;;4881029;29;20665;-79
2022/05/24 11:42:34;;;;;;;1.88;1.33;;;13.70;99.90;;;;;;4867060;29;20507;-79
2022/05/24 11:45:20;;;;;;;2.45;1.20;;;13.90;99.90;;;;;;4879576;29;20051;-79
2022/05/24 11:47:46;;;;;;;2.83;1.73;;;14.00;99.90;;;;;;4878560;29;20036;-79
2022/05/24 11:50:30;;;;;;;3.13;1.40;;;14.30;99.90;;;;;;4881345;29;20044;-79
2022/05/24 11:53:05;;;;;;;5.10;1.80;;;14.40;99.90;;;;;;4881866;29;20063;-79
2022/05/24 11:55:46;;;;;;;3.58;1.30;;;14.60;99.90;;;;;;4896384;29;21564;-79
2022/05/24 11:58:21;;;;;;;2.30;1.10;;;14.80;99.90;;;;;;4884421;29;20048;-79
2022/05/24 12:01:30;;;;;;;3.03;1.10;;;15.00;99.90;;;;;;4896232;29;20099;-79
2022/05/24 12:10:06;;;;;;;2.53;1.10;;;15.50;99.90;;;;;;4896153;29;20156;-79
2022/05/24 12:12:34;;;;;;;3.78;1.00;;;15.60;99.90;;;;;;4880723;29;20039;-79
2022/05/24 12:15:15;;;;;;;3.10;1.00;;;15.80;99.90;;;;;;4880033;29;20040;-79
2022/05/24 12:17:43;;;;;;;1.77;0.93;;;15.90;99.90;;;;;;4880358;29;20043;-79
2022/05/24 12:20:27;;;;;;;1.38;0.80;;;15.90;99.90;;;;;;4896493;29;20127;-79
2022/05/24 12:23:08;;;;;;;1.98;0.70;;;16.00;99.90;;;;;;4876990;29;20059;-79
2022/05/24 12:25:58;;;;;;;3.03;1.30;;;16.10;99.90;;;;;;4888585;29;20040;-79
2022/05/24 12:28:28;;;;;;;2.72;1.08;;;16.40;99.90;;;;;;4896633;29;20047;-79
2022/05/24 12:30:57;;;;;;;3.88;0.90;;;16.50;99.90;;;;;;4881746;29;20040;-79
2022/05/24 12:33:33;;;;;;;4.65;1.23;;;16.60;99.90;;;;;;4866351;29;20405;-79
2022/05/24 12:36:01;;;;;;;;;;;16.60;99.90;;;;;;4895781;29;20051;-79
2022/05/24 12:38:29;;;;;;;1.88;1.20;;;16.80;99.90;;;;;;4888563;29;19923;-79
2022/05/24 12:41:17;;;;;;;3.22;1.10;;;16.90;99.90;;;;;;4880288;29;20512;-79
2022/05/24 12:43:57;;;;;;;3.60;1.45;;;17.10;99.90;;;;;;4911963;29;20028;-79
2022/05/24 12:46:26;;;;;;;2.10;1.40;;;17.40;99.90;;;;;;4874717;29;20056;-79
2022/05/24 12:49:07;;;;;;;2.15;1.65;;;17.70;99.90;;;;;;4892379;29;20048;-79
2022/05/24 12:51:33;;;;;;;4.43;1.70;;;18.00;99.90;;;;;;4889789;29;20064;-79
2022/05/24 12:54:19;;;;;;;2.83;1.50;;;18.30;99.90;;;;;;4887611;29;20048;-79
2022/05/24 12:56:57;;;;;;;3.97;1.20;;;18.70;99.90;;;;;;4888311;29;20044;-79
2022/05/24 12:59:36;;;;;;;2.42;1.00;;;19.10;99.90;;;;;;4887402;29;20048;-79
2022/05/24 13:02:27;;;;;;;2.15;0.90;;;19.40;99.90;;;;;;4870505;29;20588;-79
2022/05/24 13:05:09;;;;;;;1.73;0.65;;;19.70;99.90;;;;;;4886159;29;20043;-79
2022/05/24 13:07:43;;;;;;;3.08;0.98;;;19.70;99.90;;;;;;4876840;29;20083;-79
2022/05/24 13:10:33;;;;;;;3.03;1.13;;;19.50;99.90;;;;;;4890376;29;20078;-79
2022/05/24 13:13:15;;;;;;;2.25;1.27;;;18.90;99.90;;;;;;4874734;29;20067;-79
2022/05/24 13:15:50;;;;;;;4.03;1.85;;;18.60;99.90;;;;;;4890247;29;20568;-79
2022/05/24 13:18:23;;;;;;;2.55;1.20;;;18.70;99.90;;;;;;4875493;29;20084;-79
2022/05/24 13:20:53;;;;;;;4.38;1.15;;;18.80;99.90;;;;;;4877643;29;20055;-79
2022/05/24 13:23:23;;;;;;;1.70;1.00;;;18.80;99.90;;;;;;4889798;29;20044;-79
2022/05/24 13:25:55;;;;;;;2.35;1.20;;;18.60;99.90;;;;;;4890017;29;20059;-79
2022/05/24 13:28:48;;;;;;;3.95;1.17;;;18.60;99.90;;;;;;4889315;29;20092;-79
2022/05/24 13:34:26;;;;;;;5.05;1.10;;;18.90;99.90;;;;;;4893907;29;20243;-79
2022/05/24 13:36:53;;;;;;;2.47;0.93;;;19.10;99.90;;;;;;4895798;29;20051;-79
2022/05/24 13:39:23;;;;;;;3.45;1.17;;;19.10;99.70;;;;;;4893274;29;20417;-79
2022/05/24 13:42:16;;;;;;;2.13;1.30;;;19.40;99.90;;;;;;4897900;29;20075;-79
2022/05/24 13:45:13;;;;;;;2.97;1.05;;;19.60;98.70;;;;;;4872726;29;20053;-79